Time;durP1;ratioP1;P1;durP2;ratioP2;P2;SDS_P1;SDS_P2;PMS_P1;PMS_P2;Temp;Humidity;BMP_temperature;BMP_pressure;BME280_temperature;BME280_humidity;BME280_pressure;Samples;Min_cycle;Max_cycle;Signal;HPM_P1;HPM_P2
2023/08/11 00:02:16;;;;;;;1.73;1.60;;;;;;;;;;5030910;28;20215;-63
2023/08/11 00:04:43;;;;;;;2.20;1.50;;;;;;;;;;5031084;28;20234;-63
2023/08/11 00:07:10;;;;;;;2.05;1.95;;;;;;;;;;5030442;28;20274;-62
2023/08/11 00:09:37;;;;;;;1.60;1.50;;;;;;;;;;5030892;28;20636;-63
2023/08/11 00:12:03;;;;;;;1.80;1.30;;;;;;;;;;5030580;28;20678;-63
2023/08/11 00:14:31;;;;;;;2.55;1.80;;;;;;;;;;5031164;28;20334;-63
2023/08/11 00:16:59;;;;;;;2.05;1.95;;;;;;;;;;5030704;28;20257;-63
2023/08/11 00:19:26;;;;;;;3.05;1.60;;;;;;;;;;5030685;28;20670;-63
2023/08/11 00:21:52;;;;;;;1.63;1.52;;;;;;;;;;5030083;28;20224;-62
2023/08/11 00:24:19;;;;;;;3.28;1.85;;;;;;;;;;5030574;28;20623;-63
2023/08/11 00:26:45;;;;;;;1.52;1.45;;;;;;;;;;5030127;28;20788;-63
2023/08/11 00:29:12;;;;;;;2.28;1.60;;;;;;;;;;5030474;28;20677;-63
2023/08/11 00:31:38;;;;;;;2.20;1.80;;;;;;;;;;5030496;28;20290;-62
2023/08/11 00:34:07;;;;;;;2.35;1.65;;;;;;;;;;5030906;28;20242;-63
2023/08/11 00:36:34;;;;;;;4.63;1.80;;;;;;;;;;5030534;28;20287;-63
2023/08/11 00:39:01;;;;;;;3.17;1.73;;;;;;;;;;5030064;28;20212;-63
2023/08/11 00:41:27;;;;;;;2.97;1.85;;;;;;;;;;5030656;28;20214;-63
2023/08/11 00:43:54;;;;;;;3.35;1.80;;;;;;;;;;5030626;28;20231;-63
2023/08/11 00:46:22;;;;;;;4.72;1.70;;;;;;;;;;5029940;28;20247;-63
2023/08/11 00:48:51;;;;;;;2.47;1.88;;;;;;;;;;5027623;28;20254;-63
2023/08/11 00:51:20;;;;;;;1.98;1.88;;;;;;;;;;5029445;28;20278;-63
2023/08/11 00:53:46;;;;;;;1.88;1.75;;;;;;;;;;5030056;28;20223;-63
2023/08/11 00:56:14;;;;;;;2.53;2.15;;;;;;;;;;5030186;28;20199;-63
2023/08/11 00:58:40;;;;;;;3.17;2.10;;;;;;;;;;5029950;28;20231;-63
2023/08/11 01:01:07;;;;;;;1.50;1.35;;;;;;;;;;5030525;28;20304;-63
2023/08/11 01:03:34;;;;;;;4.10;1.73;;;;;;;;;;5029746;28;20215;-63
2023/08/11 01:06:04;;;;;;;1.75;1.73;;;;;;;;;;5029860;28;20227;-63
2023/08/11 01:08:35;;;;;;;1.92;1.70;;;;;;;;;;5029681;28;20235;-63
2023/08/11 01:11:06;;;;;;;2.45;1.73;;;;;;;;;;5029700;28;20208;-63
2023/08/11 01:13:34;;;;;;;1.70;1.60;;;;;;;;;;5029712;28;20238;-63
2023/08/11 01:16:01;;;;;;;3.08;1.95;;;;;;;;;;5030095;28;20203;-62
2023/08/11 01:18:29;;;;;;;2.47;1.50;;;;;;;;;;5029745;28;20262;-62
2023/08/11 01:20:59;;;;;;;1.75;1.60;;;;;;;;;;5029904;28;20199;-63
2023/08/11 01:23:27;;;;;;;2.17;1.77;;;;;;;;;;5029936;28;20227;-63
2023/08/11 01:25:54;;;;;;;1.98;1.77;;;;;;;;;;5029321;28;20238;-63
2023/08/11 01:28:20;;;;;;;2.78;2.10;;;;;;;;;;5029737;28;20238;-63
2023/08/11 01:30:48;;;;;;;1.88;1.80;;;;;;;;;;5029609;28;20227;-63
2023/08/11 01:33:14;;;;;;;1.40;1.40;;;;;;;;;;5030074;28;20208;-63
2023/08/11 01:35:41;;;;;;;2.40;1.90;;;;;;;;;;5029645;28;20231;-63
2023/08/11 01:38:08;;;;;;;1.88;1.77;;;;;;;;;;5029690;28;20287;-62
2023/08/11 01:40:36;;;;;;;1.70;1.60;;;;;;;;;;5029603;28;20204;-62
2023/08/11 01:43:05;;;;;;;3.47;1.70;;;;;;;;;;5029719;28;20199;-63
2023/08/11 01:45:31;;;;;;;1.80;1.70;;;;;;;;;;5029073;28;20204;-62
2023/08/11 01:47:58;;;;;;;2.38;1.83;;;;;;;;;;5029486;28;20220;-62
2023/08/11 01:50:26;;;;;;;3.00;2.10;;;;;;;;;;5029558;28;20192;-62
2023/08/11 01:52:54;;;;;;;4.00;2.00;;;;;;;;;;5029460;28;20222;-63
2023/08/11 01:55:21;;;;;;;2.65;1.80;;;;;;;;;;5029135;28;20286;-63
2023/08/11 01:57:49;;;;;;;1.80;1.70;;;;;;;;;;5029313;28;20678;-63
2023/08/11 02:00:16;;;;;;;3.08;1.95;;;;;;;;;;5028995;28;20235;-63
2023/08/11 02:02:43;;;;;;;2.30;2.10;;;;;;;;;;5033612;28;20215;-63
2023/08/11 02:05:11;;;;;;;2.05;1.90;;;;;;;;;;5032507;28;20237;-63
2023/08/11 02:07:37;;;;;;;1.55;1.55;;;;;;;;;;5032919;28;20231;-63
2023/08/11 02:10:04;;;;;;;2.20;2.10;;;;;;;;;;5032980;28;20277;-63
2023/08/11 02:12:31;;;;;;;2.00;1.90;;;;;;;;;;5032888;28;20631;-63
2023/08/11 02:14:59;;;;;;;1.75;1.65;;;;;;;;;;5033219;28;20227;-64
2023/08/11 02:17:26;;;;;;;5.70;2.10;;;;;;;;;;5033055;28;20211;-63
2023/08/11 02:19:53;;;;;;;2.05;1.85;;;;;;;;;;5032798;28;20230;-63
2023/08/11 02:22:19;;;;;;;2.33;2.22;;;;;;;;;;5033314;28;20214;-61
2023/08/11 02:24:46;;;;;;;2.08;1.98;;;;;;;;;;5032453;28;20208;-63
2023/08/11 02:27:13;;;;;;;2.78;1.95;;;;;;;;;;5032580;28;20224;-64
2023/08/11 02:29:39;;;;;;;4.43;2.35;;;;;;;;;;5032808;28;20207;-64
2023/08/11 02:32:07;;;;;;;3.35;2.08;;;;;;;;;;5032835;28;20273;-64
2023/08/11 02:34:34;;;;;;;2.97;2.03;;;;;;;;;;5031706;28;20234;-64
2023/08/11 02:37:00;;;;;;;2.08;1.77;;;;;;;;;;5032439;28;20199;-63
2023/08/11 02:39:27;;;;;;;3.45;2.10;;;;;;;;;;5032909;28;20249;-62
2023/08/11 02:41:55;;;;;;;2.15;1.98;;;;;;;;;;5032629;28;20719;-63
2023/08/11 02:44:22;;;;;;;2.83;2.13;;;;;;;;;;5032303;28;20204;-63
2023/08/11 02:46:48;;;;;;;2.42;2.20;;;;;;;;;;5032444;28;20224;-64
2023/08/11 02:49:16;;;;;;;2.28;2.08;;;;;;;;;;5032366;28;20222;-63
2023/08/11 02:51:43;;;;;;;1.95;1.85;;;;;;;;;;5031840;28;20226;-64
2023/08/11 02:54:11;;;;;;;2.22;2.10;;;;;;;;;;5032712;28;20286;-63
2023/08/11 02:56:37;;;;;;;2.08;1.75;;;;;;;;;;5032080;28;20267;-64
2023/08/11 02:59:04;;;;;;;2.10;1.92;;;;;;;;;;5019745;28;20200;-63
2023/08/11 03:01:32;;;;;;;2.72;1.92;;;;;;;;;;5031900;28;20200;-64
2023/08/11 03:03:59;;;;;;;3.47;1.88;;;;;;;;;;5032391;28;20318;-63
2023/08/11 03:06:27;;;;;;;3.13;1.90;;;;;;;;;;5032532;28;20265;-63
2023/08/11 03:08:54;;;;;;;2.30;2.10;;;;;;;;;;5032537;28;20204;-63
2023/08/11 03:11:20;;;;;;;1.70;1.60;;;;;;;;;;5032798;28;20269;-63
2023/08/11 03:13:47;;;;;;;4.90;1.83;;;;;;;;;;5031640;28;20211;-64
2023/08/11 03:16:13;;;;;;;4.70;1.83;;;;;;;;;;5032144;28;20265;-63
2023/08/11 03:18:40;;;;;;;2.47;1.90;;;;;;;;;;5032168;28;20288;-63
2023/08/11 03:21:07;;;;;;;3.08;1.90;;;;;;;;;;5031624;28;20290;-63
2023/08/11 03:23:35;;;;;;;2.25;1.90;;;;;;;;;;5032264;28;20227;-63
2023/08/11 03:26:01;;;;;;;2.38;2.22;;;;;;;;;;5031754;28;20239;-63
2023/08/11 03:28:28;;;;;;;2.20;2.10;;;;;;;;;;5032003;28;20223;-63
2023/08/11 03:30:54;;;;;;;2.40;2.10;;;;;;;;;;5031773;28;20243;-64
2023/08/11 03:33:21;;;;;;;3.15;2.22;;;;;;;106.45;0.00;76290.31;5031593;28;20200;-64
2023/08/11 03:35:48;;;;;;;2.30;2.08;;;;;;;;;;5031450;28;20819;-63
2023/08/11 03:38:15;;;;;;;2.28;2.08;;;;;;;;;;5031125;28;20749;-63
2023/08/11 03:40:43;;;;;;;3.65;2.92;;;;;;;;;;5031785;28;20203;-63
2023/08/11 03:43:09;;;;;;;3.50;2.50;;;;;;;;;;5031656;28;20270;-63
2023/08/11 03:45:36;;;;;;;2.65;2.55;;;;;;;;;;5031183;28;20199;-62
2023/08/11 03:48:02;;;;;;;8.13;2.88;;;;;;;;;;5031176;28;20223;-65
2023/08/11 03:50:29;;;;;;;4.03;2.67;;;;;;;;;;5031116;28;20761;-64
2023/08/11 03:52:56;;;;;;;4.93;2.30;;;;;;;;;;5031274;28;20228;-61
2023/08/11 03:55:22;;;;;;;2.40;2.30;;;;;;;;;;5031219;28;20212;-61
2023/08/11 03:57:51;;;;;;;4.85;2.65;;;;;;;;;;5031091;28;20265;-62
2023/08/11 04:00:19;;;;;;;2.65;2.45;;;;;;;;;;5031271;28;20291;-62
2023/08/11 04:02:46;;;;;;;5.43;2.42;;;;;;;;;;5031476;28;20207;-63
2023/08/11 04:05:13;;;;;;;6.63;2.42;;;;;;;;;;5030664;28;20344;-63
2023/08/11 04:07:39;;;;;;;5.78;2.63;;;;;;;;;;5031110;28;20234;-63
2023/08/11 04:10:06;;;;;;;5.05;2.35;;;;;;;;;;5030886;28;20231;-63
2023/08/11 04:12:33;;;;;;;4.90;2.38;;;;;;;;;;5031304;28;20208;-64
2023/08/11 04:15:01;;;;;;;4.43;2.45;;;;;;;;;;5030746;28;20204;-63
2023/08/11 04:17:28;;;;;;;3.28;2.15;;;;;;;;;;5031016;28;20204;-63
2023/08/11 04:19:55;;;;;;;2.60;1.98;;;;;;;;;;5030769;28;20633;-64
2023/08/11 04:22:21;;;;;;;1.90;1.80;;;;;;;;;;5031371;28;20700;-64
2023/08/11 04:24:47;;;;;;;2.85;2.05;;;;;;;;;;5029852;28;20258;-63
2023/08/11 04:27:14;;;;;;;5.28;1.85;;;;;;;;;;5031002;28;20285;-63
2023/08/11 04:29:40;;;;;;;17.00;12.35;;;;;;;;;;5030335;28;20689;-63
2023/08/11 04:32:09;;;;;;;5.97;5.47;;;;;;;;;;5030737;28;20200;-64
2023/08/11 04:34:36;;;;;;;2.95;2.75;;;;;;;;;;5030522;28;20679;-63
2023/08/11 04:37:04;;;;;;;3.33;1.60;;;;;;;;;;5030374;28;20212;-64
2023/08/11 04:39:31;;;;;;;2.10;2.00;;;;;;;;;;5029778;28;20203;-64
2023/08/11 04:41:57;;;;;;;2.40;1.77;;;;;;;;;;5030258;28;20594;-64
2023/08/11 04:44:24;;;;;;;2.08;1.88;;;;;;;;;;5030180;28;20200;-64
2023/08/11 04:46:50;;;;;;;12.45;10.45;;;;;;;;;;5030550;28;20235;-64
2023/08/11 04:49:18;;;;;;;7.75;7.10;;;;;;;;;;5029922;28;20283;-64
2023/08/11 04:51:44;;;;;;;3.60;3.40;;;;;;;;;;5030342;28;20714;-64
2023/08/11 04:54:11;;;;;;;3.03;2.45;;;;;;;;;;5030265;28;20207;-63
2023/08/11 04:56:38;;;;;;;2.00;1.80;;;;;;;;;;5030144;28;20230;-64
2023/08/11 04:59:04;;;;;;;4.65;4.25;;;;;;;;;;5030662;28;20196;-65
2023/08/11 05:01:30;;;;;;;8.70;6.97;;;;;;;;;;5029671;28;20204;-64
2023/08/11 05:03:57;;;;;;;4.70;4.15;;;;;;;;;;5030209;28;20232;-63
2023/08/11 05:06:25;;;;;;;2.15;2.03;;;;;;;;;;5029933;28;20215;-63
2023/08/11 05:08:52;;;;;;;2.15;1.80;;;;;;;;;;5030036;28;20254;-63
2023/08/11 05:11:18;;;;;;;2.65;2.45;;;;;;;;;;5029825;28;20258;-63
2023/08/11 05:13:44;;;;;;;2.75;2.28;;;;;;;;;;5030245;28;20696;-62
2023/08/11 05:16:11;;;;;;;3.70;2.53;;;;;;;;;;5029737;28;20588;-63
2023/08/11 05:18:37;;;;;;;2.60;2.40;;;;;;;;;;5030279;28;20203;-63
2023/08/11 05:21:05;;;;;;;2.85;2.42;;;;;;;;;;5030129;28;20208;-64
2023/08/11 05:23:33;;;;;;;2.67;2.13;;;;;;;;;;5030460;28;20951;-63
2023/08/11 05:25:59;;;;;;;3.28;2.35;;;;;;;;;;5029710;28;20214;-64
2023/08/11 05:28:26;;;;;;;4.43;2.95;;;;;;;;;;5029678;28;20664;-62
2023/08/11 05:30:52;;;;;;;4.13;2.70;;;;;;;;;;5029447;28;20243;-63
2023/08/11 05:33:19;;;;;;;3.05;2.25;;;;;;;;;;5030331;28;20239;-63
2023/08/11 05:35:45;;;;;;;2.38;2.20;;;;;;;;;;5030595;28;20289;-64
2023/08/11 05:38:12;;;;;;;3.20;2.60;;;;;;;;;;5033626;28;20689;-64
2023/08/11 05:40:41;;;;;;;3.85;2.33;;;;;;;;;;5033985;28;20200;-64
2023/08/11 05:43:08;;;;;;;3.25;2.30;;;;;;;;;;5033555;28;20208;-63
2023/08/11 05:45:34;;;;;;;3.30;2.75;;;;;;;;;;5033601;28;20212;-63
2023/08/11 05:48:00;;;;;;;3.58;2.65;;;;;;;;;;5033266;28;20281;-63
2023/08/11 05:50:27;;;;;;;3.40;2.80;;;;;;;;;;5033839;28;20228;-63
2023/08/11 05:52:54;;;;;;;6.53;2.10;;;;;;;;;;5033810;28;20227;-63
2023/08/11 05:55:20;;;;;;;2.75;2.55;;;;;;;;;;5033115;28;20212;-63
2023/08/11 05:57:48;;;;;;;2.40;2.30;;;;;;;;;;5033119;28;20208;-64
2023/08/11 06:00:16;;;;;;;3.85;2.55;;;;;;;;;;5033432;28;20207;-63
2023/08/11 06:02:43;;;;;;;6.63;2.50;;;;;;;;;;5033400;28;20208;-64
2023/08/11 06:05:09;;;;;;;3.08;2.22;;;;;;;;;;5032999;28;20289;-64
2023/08/11 06:07:36;;;;;;;2.20;2.10;;;;;;;;;;5033194;28;20250;-64
2023/08/11 06:10:02;;;;;;;1.55;1.45;;;;;;;;;;5033345;28;20203;-64
2023/08/11 06:12:28;;;;;;;1.80;1.70;;;;;;;;;;5033301;28;20203;-64
2023/08/11 06:14:56;;;;;;;4.00;2.33;;;;;;;;;;5033007;28;20277;-64
2023/08/11 06:17:23;;;;;;;7.55;2.55;;;;;;;;;;5033248;28;20211;-64
2023/08/11 06:19:49;;;;;;;2.45;2.17;;;;;;;;;;5032762;28;20739;-64
2023/08/11 06:22:16;;;;;;;2.90;2.20;;;;;;;;;;5033010;28;20207;-64
2023/08/11 06:24:43;;;;;;;2.25;2.13;;;;;;;;;;5032919;28;20751;-65
2023/08/11 06:27:09;;;;;;;2.53;2.33;;;;;;;;;;5032972;28;20207;-65
2023/08/11 06:29:36;;;;;;;2.92;2.20;;;;;;;;;;5032952;28;20262;-65
2023/08/11 06:32:04;;;;;;;2.45;2.30;;;;;;;;;;5032962;28;20261;-65
2023/08/11 06:34:30;;;;;;;2.10;2.00;;;;;;;;;;5033004;28;20203;-63
2023/08/11 06:36:57;;;;;;;3.63;2.40;;;;;;;;;;5033027;28;20282;-64
2023/08/11 06:39:24;;;;;;;2.10;2.00;;;;;;;;;;5032748;28;20227;-64
2023/08/11 06:41:50;;;;;;;2.28;2.17;;;;;;;;;;5032866;28;20203;-63
2023/08/11 06:44:17;;;;;;;2.30;2.20;;;;;;;;;;5032162;28;20618;-63
2023/08/11 06:46:43;;;;;;;2.80;2.50;;;;;;;;;;5032740;28;20649;-65
2023/08/11 06:49:11;;;;;;;2.50;2.35;;;;;;;;;;5031528;28;20233;-65
2023/08/11 06:51:37;;;;;;;2.45;2.13;;;;;;;;;;5032768;28;20235;-65
2023/08/11 06:54:04;;;;;;;4.07;2.53;;;;;;;;;;5032459;28;20231;-65
2023/08/11 06:56:30;;;;;;;3.95;2.70;;;;;;;;;;5032475;28;20203;-66
2023/08/11 06:59:00;;;;;;;2.97;2.55;;;;;;;;;;5032189;28;20199;-65
2023/08/11 07:01:26;;;;;;;2.67;2.50;;;;;;;;;;5032109;28;20685;-67
2023/08/11 07:03:53;;;;;;;3.83;2.95;;;;;;;;;;5031860;28;20227;-65
2023/08/11 07:06:21;;;;;;;2.20;2.10;;;;;;;;;;5032049;28;20207;-65
2023/08/11 07:08:47;;;;;;;2.97;2.78;;;;;;;;;;5031538;28;20665;-65
2023/08/11 07:11:14;;;;;;;2.30;2.20;;;;;;;;;;5031756;28;20199;-66
2023/08/11 07:13:40;;;;;;;3.25;2.83;;;;;;;;;;5032024;28;20631;-65
2023/08/11 07:16:06;;;;;;;3.10;2.50;;;;;;;;;;5032069;28;20206;-65
2023/08/11 07:18:33;;;;;;;4.13;3.10;;;;;;;;;;5032073;28;20272;-65
2023/08/11 07:20:59;;;;;;;4.68;4.20;;;;;;;;;;5031517;28;20677;-65
2023/08/11 07:23:27;;;;;;;3.28;3.08;;;;;;;;;;5032453;28;20364;-65
2023/08/11 07:25:54;;;;;;;7.53;6.40;;;;;;;;;;5031347;28;20211;-65
2023/08/11 07:28:20;;;;;;;6.13;5.53;;;;;;;;;;5031665;28;20806;-66
2023/08/11 07:30:47;;;;;;;5.45;3.40;;;;;;;;;;5031774;28;20207;-65
2023/08/11 07:33:13;;;;;;;6.38;5.00;;;;;;;;;;5031695;28;20211;-65
2023/08/11 07:35:40;;;;;;;4.75;4.38;;;;;;;;;;5031692;28;20268;-66
2023/08/11 07:38:06;;;;;;;11.45;3.38;;;;;;;;;;5031832;28;20199;-66
2023/08/11 07:40:34;;;;;;;4.53;2.85;;;;;;;49.05;nan;95596.59;5043498;28;20276;-66
2023/08/11 07:43:00;;;;;;;3.10;2.88;;;;;;;;;;5031555;28;20643;-65
2023/08/11 07:45:27;;;;;;;3.20;2.90;;;;;;;;;;5031121;28;20360;-65
2023/08/11 07:47:54;;;;;;;3.53;3.33;;;;;;;;;;5031509;28;20207;-65
2023/08/11 07:50:20;;;;;;;4.50;4.00;;;;;;;;;;5031054;28;20261;-66
2023/08/11 07:52:47;;;;;;;4.40;4.20;;;;;;;;;;5031609;28;20227;-65
2023/08/11 07:55:13;;;;;;;4.63;4.30;;;;;;;;;;5030638;28;20210;-65
2023/08/11 07:57:41;;;;;;;3.65;3.35;;;;;;;;;;5031026;28;20214;-65
2023/08/11 08:00:16;;;;;;;24.75;3.75;;;;;;;;;;5030482;28;20851;-65
2023/08/11 08:02:42;;;;;;;3.42;3.22;;;;;;;;;;5031043;28;20276;-65
2023/08/11 08:05:09;;;;;;;3.33;3.13;;;;;;;;;;5030917;28;20629;-65
2023/08/11 08:07:35;;;;;;;3.28;3.03;;;;;;;;;;5031849;28;20210;-65
2023/08/11 08:10:08;;;;;;;3.30;3.05;;;;;;;;;;5030783;28;20254;-64
2023/08/11 08:12:34;;;;;;;3.88;3.03;;;;;;;;;;5031939;28;20207;-65
2023/08/11 08:15:02;;;;;;;2.80;2.70;;;;;;;;;;5030634;28;20207;-66
2023/08/11 08:17:28;;;;;;;5.05;2.70;;;;;;;48.70;nan;95605.69;5031184;28;20297;-65
2023/08/11 08:19:55;;;;;;;2.70;2.47;;;;;;;48.60;nan;95604.94;5030214;28;20652;-65
2023/08/11 08:22:22;;;;;;;6.53;2.60;;;;;;;;;;5031225;28;20281;-66
2023/08/11 08:24:48;;;;;;;2.95;2.80;;;;;;;;;;5030382;28;20246;-66
2023/08/11 08:27:17;;;;;;;2.78;2.67;;;;;;;;;;5030914;28;20285;-65
2023/08/11 08:29:43;;;;;;;4.45;2.50;;;;;;;;;;5030667;28;20230;-65
2023/08/11 08:32:11;;;;;;;2.55;2.42;;;;;;;;;;5030641;28;20353;-65
2023/08/11 08:34:38;;;;;;;4.57;2.40;;;;;;;;;;5031063;28;20231;-65
2023/08/11 08:37:05;;;;;;;2.67;2.47;;;;;;;;;;5030486;28;20260;-65
2023/08/11 08:39:32;;;;;;;2.97;2.78;;;;;;;;;;5030893;28;20199;-65
2023/08/11 08:41:58;;;;;;;3.60;3.13;;;;;;;;;;5030395;28;20261;-65
2023/08/11 08:44:25;;;;;;;4.38;2.88;;;;;;;;;;5030839;28;20199;-65
2023/08/11 08:46:54;;;;;;;2.50;2.40;;;;;;;;;;5030252;28;20211;-65
2023/08/11 08:49:24;;;;;;;3.05;2.88;;;;;;;;;;5018990;28;20250;-65
2023/08/11 08:51:50;;;;;;;2.50;2.40;;;;;;;;;;5030150;28;20285;-64
2023/08/11 08:54:17;;;;;;;2.47;2.38;;;;;;;;;;5030440;28;20217;-65
2023/08/11 08:56:43;;;;;;;2.35;2.25;;;;;;;;;;5029682;28;20211;-65
2023/08/11 08:59:10;;;;;;;2.28;2.17;;;;;;;;;;5030485;28;20235;-65
2023/08/11 09:01:37;;;;;;;2.30;2.20;;;;;;;;;;5029652;28;20258;-64
2023/08/11 09:04:04;;;;;;;2.92;2.72;;;;;;;;;;5030565;28;20243;-64
2023/08/11 09:06:31;;;;;;;4.38;3.88;;;;;;;;;;5030013;28;20257;-65
2023/08/11 09:08:59;;;;;;;3.13;2.83;;;;;;;;;;5029901;28;20683;-65
2023/08/11 09:11:26;;;;;;;4.97;2.58;;;;;;;;;;5034059;28;20245;-64
2023/08/11 09:13:53;;;;;;;2.78;2.67;;;;;;;;;;5036859;28;20207;-64
2023/08/11 09:16:23;;;;;;;3.13;2.75;;;;;;;;;;5036735;28;20235;-64
2023/08/11 09:18:49;;;;;;;3.05;2.70;;;;;;;;;;5036706;28;20285;-65
2023/08/11 09:21:16;;;;;;;6.32;3.33;;;;;;;;;;5036758;28;20265;-65
2023/08/11 09:23:44;;;;;;;6.82;3.70;;;;;;;;;;5036801;28;20206;-64
2023/08/11 09:26:10;;;;;;;3.53;3.25;;;;;;;;;;5036357;28;20733;-64
2023/08/11 09:28:38;;;;;;;4.75;3.65;;;;;;;;;;5036715;28;20255;-65
2023/08/11 09:31:04;;;;;;;2.88;2.55;;;;;;;;;;5036537;28;20286;-64
2023/08/11 09:33:31;;;;;;;4.88;2.45;;;;;;;;;;5036705;28;20273;-64
2023/08/11 09:35:58;;;;;;;2.55;2.40;;;;;;;;;;5036344;28;20576;-64
2023/08/11 09:38:25;;;;;;;2.85;2.65;;;;;;;;;;5036365;28;20261;-64
2023/08/11 09:40:54;;;;;;;4.75;2.95;;;;;;;;;;5036500;28;20241;-63
2023/08/11 09:43:20;;;;;;;5.45;3.28;;;;;;;;;;5036350;28;20235;-64
2023/08/11 09:45:47;;;;;;;5.45;3.17;;;;;;;;;;5036787;28;20322;-64
2023/08/11 09:48:13;;;;;;;2.88;2.00;;;;;;;;;;5036318;28;20281;-64
2023/08/11 09:50:40;;;;;;;5.70;4.55;;;;;;;;;;5036219;28;20230;-64
2023/08/11 09:53:07;;;;;;;2.97;2.75;;;;;;;;;;5036458;28;20258;-64
2023/08/11 09:55:36;;;;;;;3.55;2.80;;;;;;;;;;5036176;28;20195;-64
2023/08/11 09:58:04;;;;;;;7.03;2.60;;;;;;;;;;5035926;28;20231;-64
2023/08/11 10:00:31;;;;;;;2.60;2.40;;;;;;;;;;5035811;28;20253;-64
2023/08/11 10:03:00;;;;;;;2.72;2.53;;;;;;;;;;5036252;28;20203;-64
2023/08/11 10:05:28;;;;;;;2.05;1.95;;;;;;;;;;5035783;28;20614;-63
2023/08/11 10:07:55;;;;;;;3.83;2.10;;;;;;;;;;5035601;28;20207;-64
2023/08/11 10:10:23;;;;;;;2.53;2.40;;;;;;;;;;5036331;28;20219;-65
2023/08/11 10:12:54;;;;;;;2.88;2.60;;;;;;;;;;5035891;28;20204;-64
2023/08/11 10:15:23;;;;;;;1.70;1.60;;;;;;;;;;5036536;28;20273;-65
2023/08/11 10:17:49;;;;;;;2.65;2.45;;;;;;;;;;5035890;28;20199;-64
2023/08/11 10:20:16;;;;;;;4.40;2.75;;;;;;;;;;5036617;28;20215;-64
2023/08/11 10:22:43;;;;;;;2.97;2.80;;;;;;;;;;5033914;28;20212;-64
2023/08/11 10:25:10;;;;;;;4.78;4.38;;;;;;;;;;5033047;28;20207;-64
2023/08/11 10:27:37;;;;;;;3.13;2.90;;;;;;;;;;5032758;28;20637;-63
2023/08/11 10:30:05;;;;;;;5.88;3.80;;;;;;;26.77;nan;95586.28;5033028;28;20234;-64
2023/08/11 10:32:34;;;;;;;8.20;3.70;;;;;;;;;;5032734;28;20195;-63
2023/08/11 10:35:01;;;;;;;3.20;2.90;;;;;;;;;;5033103;28;20565;-62
2023/08/11 10:37:29;;;;;;;4.95;2.85;;;;;;;;;;5032685;28;20207;-63
2023/08/11 10:40:02;;;;;;;5.20;2.95;;;;;;;;;;5033027;28;20231;-64
2023/08/11 10:42:29;;;;;;;4.10;3.65;;;;;;;;;;5032118;28;20621;-64
2023/08/11 10:45:07;;;;;;;7.88;5.07;;;;;;;;;;5033141;28;20306;-63
2023/08/11 10:47:34;;;;;;;9.75;5.20;;;;;;;;;;5032338;28;20199;-63
2023/08/11 10:50:02;;;;;;;8.05;4.40;;;;;;;;;;5032477;28;20223;-63
2023/08/11 10:52:29;;;;;;;5.30;4.80;;;;;;;;;;5032628;28;20220;-63
2023/08/11 10:54:59;;;;;;;10.48;6.20;;;;;;;;;;5032512;28;20659;-63
2023/08/11 10:57:26;;;;;;;8.05;5.50;;;;;;;;;;5032214;28;20242;-63
2023/08/11 10:59:52;;;;;;;7.60;5.28;;;;;;;;;;5032304;28;20203;-64
2023/08/11 11:02:20;;;;;;;7.88;5.07;;;;;;;;;;5032293;28;20199;-64
2023/08/11 11:04:47;;;;;;;9.15;4.75;;;;;;;;;;5032033;28;20286;-64
2023/08/11 11:07:15;;;;;;;3.47;3.28;;;;;;;;;;5032604;28;20204;-64
2023/08/11 11:09:41;;;;;;;5.88;4.28;;;;;;;;;;5031857;28;20258;-63
2023/08/11 11:12:08;;;;;;;6.55;4.78;;;;;;;;;;5032438;28;20204;-64
2023/08/11 11:14:36;;;;;;;5.20;3.58;;;;;;;;;;5032128;28;20204;-64
2023/08/11 11:17:03;;;;;;;3.40;2.72;;;;;;;;;;5031897;28;20206;-64
2023/08/11 11:19:31;;;;;;;2.97;2.78;;;;;;;;;;5031808;28;20223;-64
2023/08/11 11:21:59;;;;;;;3.70;3.40;;;;;;;;;;5032049;28;20273;-63
2023/08/11 11:24:26;;;;;;;12.25;2.97;;;;;;;;;;5031546;28;20204;-64
2023/08/11 11:26:52;;;;;;;3.78;3.40;;;;;;;;;;5031907;28;20195;-64
2023/08/11 11:29:23;;;;;;;2.80;2.45;;;;;;;;;;5031603;28;20340;-64
2023/08/11 11:31:50;;;;;;;5.97;2.63;;;;;;;;;;5031520;28;20669;-64
2023/08/11 11:34:17;;;;;;;3.25;2.63;;;;;;;;;;5031169;28;20888;-64
2023/08/11 11:36:44;;;;;;;2.75;2.55;;;;;;;;;;5031558;28;20200;-64
2023/08/11 11:39:11;;;;;;;2.95;2.67;;;;;;;;;;5031009;28;20594;-64
2023/08/11 11:41:39;;;;;;;3.72;2.70;;;;;;;;;;5031808;28;20235;-65
2023/08/11 11:44:05;;;;;;;2.50;2.30;;;;;;;;;;5031472;28;20196;-64
2023/08/11 11:46:33;;;;;;;3.30;2.35;;;;;;;;;;5031204;28;20686;-62
2023/08/11 11:49:01;;;;;;;3.63;2.40;;;;;;;;;;5030952;28;20636;-64
2023/08/11 11:51:29;;;;;;;2.97;2.00;;;;;;;;;;5031670;28;20650;-63
2023/08/11 11:53:58;;;;;;;3.00;2.15;;;;;;;;;;5030972;28;20196;-63
2023/08/11 11:56:28;;;;;;;2.88;2.67;;;;;;;;;;5031008;28;20204;-63
2023/08/11 11:58:55;;;;;;;2.00;1.77;;;;;;;;;;5030759;28;20238;-64
2023/08/11 12:01:22;;;;;;;4.53;2.58;;;;;;;;;;5031315;28;20249;-63
2023/08/11 12:03:49;;;;;;;2.45;2.20;;;;;;;;;;5029948;28;20236;-63
2023/08/11 12:06:17;;;;;;;3.15;2.53;;;;;;;;;;5031145;28;20203;-63
2023/08/11 12:08:44;;;;;;;3.50;2.72;;;;;;;;;;5030594;28;20208;-64
2023/08/11 12:11:12;;;;;;;2.40;2.30;;;;;;;;;;5031121;28;20232;-63
2023/08/11 12:13:40;;;;;;;8.70;3.80;;;;;;;;;;5030950;28;20207;-63
2023/08/11 12:16:07;;;;;;;2.47;2.25;;;;;;;;;;5030402;28;20243;-63
2023/08/11 12:18:33;;;;;;;2.40;2.30;;;;;;;;;;5030726;28;20212;-63
2023/08/11 12:21:01;;;;;;;2.28;2.17;;;;;;;;;;5030843;28;20203;-64
2023/08/11 12:23:27;;;;;;;3.20;2.85;;;;;;;;;;5031049;28;20203;-63
2023/08/11 12:25:54;;;;;;;2.78;2.58;;;;;;;;;;5030781;28;20223;-65
2023/08/11 12:28:20;;;;;;;3.47;2.50;;;;;;;;;;5031015;28;20228;-64
2023/08/11 12:30:49;;;;;;;3.22;2.38;;;;;;;;;;5029989;28;20662;-64
2023/08/11 12:33:16;;;;;;;2.15;2.05;;;;;;;;;;5030681;28;20219;-63
2023/08/11 12:35:42;;;;;;;2.53;2.33;;;;;;;;;;5030601;28;20231;-64
2023/08/11 12:38:12;;;;;;;2.88;2.60;;;;;;;;;;5030291;28;20751;-64
2023/08/11 12:40:38;;;;;;;3.15;2.95;;;;;;;;;;5030162;28;20195;-65
2023/08/11 12:43:05;;;;;;;4.72;3.00;;;;;;;;;;5030724;28;20204;-64
2023/08/11 12:45:31;;;;;;;3.00;2.80;;;;;;;;;;5029224;28;20269;-64
2023/08/11 12:47:59;;;;;;;3.00;2.80;;;;;;;;;;5030526;28;20203;-63
2023/08/11 12:50:28;;;;;;;3.95;2.28;;;;;;;;;;5030189;28;20333;-63
2023/08/11 12:52:54;;;;;;;2.40;2.25;;;;;;;;;;5030255;28;20224;-64
2023/08/11 12:55:21;;;;;;;2.80;2.08;;;;;;;;;;5030354;28;20204;-63
2023/08/11 12:57:47;;;;;;;2.42;2.33;;;;;;;;;;5029988;28;20228;-64
2023/08/11 13:00:17;;;;;;;2.40;2.20;;;;;;;;;;5030125;28;20203;-64
2023/08/11 13:02:44;;;;;;;2.83;2.00;;;;;;;;;;5030104;28;20627;-64
2023/08/11 13:05:11;;;;;;;2.20;2.10;;;;;;;;;;5033334;28;20244;-63
2023/08/11 13:07:38;;;;;;;2.47;2.05;;;;;;;;;;5039767;28;20219;-63
2023/08/11 13:10:05;;;;;;;2.35;1.73;;;;;;;;;;5029962;28;20223;-65
2023/08/11 13:12:32;;;;;;;2.80;2.47;;;;;;;;;;5030421;28;20286;-65
2023/08/11 13:14:58;;;;;;;4.38;1.95;;;;;;;;;;5029571;28;20196;-64
2023/08/11 13:17:25;;;;;;;2.67;2.55;;;;;;;;;;5030533;28;20289;-63
2023/08/11 13:19:51;;;;;;;2.42;2.33;;;;;;;;;;5029590;28;20684;-63
2023/08/11 13:22:19;;;;;;;2.72;2.33;;;;;;;;;;5030202;28;20649;-64
2023/08/11 13:24:45;;;;;;;2.17;2.08;;;;;;;;;;5029865;28;20211;-64
2023/08/11 13:27:12;;;;;;;4.25;2.22;;;;;;;;;;5030159;28;20289;-64
2023/08/11 13:29:38;;;;;;;2.65;2.53;;;;;;;;;;5029491;28;20215;-64
2023/08/11 13:32:05;;;;;;;2.67;2.17;;;;;;;;;;5030206;28;20222;-63
2023/08/11 13:34:32;;;;;;;1.85;1.75;;;;;;;;;;5030075;28;20236;-64
2023/08/11 13:36:58;;;;;;;2.50;1.95;;;;;;;;;;5030312;28;20208;-65
2023/08/11 13:39:27;;;;;;;4.72;2.00;;;;;;;;;;5029207;28;20204;-64
2023/08/11 13:41:54;;;;;;;1.92;1.70;;;;;;;;;;5030363;28;20662;-64
2023/08/11 13:44:20;;;;;;;2.13;2.03;;;;;;;;;;5029748;28;20258;-64
2023/08/11 13:46:47;;;;;;;1.85;1.75;;;;;;;;;;5029932;28;20211;-65
2023/08/11 13:49:14;;;;;;;1.92;1.83;;;;;;;;;;5029539;28;20200;-64
2023/08/11 13:51:40;;;;;;;3.95;1.92;;;;;;;;;;5029704;28;20227;-65
2023/08/11 13:54:06;;;;;;;3.95;1.88;;;;;;;;;;5029979;28;20216;-64
2023/08/11 13:56:34;;;;;;;1.92;1.83;;;;;;;;;;5029926;28;20208;-64
2023/08/11 13:59:01;;;;;;;2.63;2.20;;;;;;;;;;5032707;28;20597;-63
2023/08/11 14:01:28;;;;;;;2.13;2.03;;;;;;;;;;5033600;28;20287;-65
2023/08/11 14:03:54;;;;;;;2.17;2.08;;;;;;;;;;5033041;28;20732;-65
2023/08/11 14:06:21;;;;;;;2.13;1.55;;;;;;;;;;5033236;28;20643;-65
2023/08/11 14:08:47;;;;;;;1.83;1.73;;;;;;;;;;5033180;28;20207;-64
2023/08/11 14:11:14;;;;;;;1.70;1.60;;;;;;;;;;5033054;28;20285;-64
2023/08/11 14:13:42;;;;;;;2.20;2.10;;;;;;;;;;5033549;28;20204;-65
2023/08/11 14:16:08;;;;;;;3.55;1.95;;;;;;;;;;5032729;28;20266;-64
2023/08/11 14:18:35;;;;;;;3.05;1.90;;;;;;;;;;5033100;28;20730;-63
2023/08/11 14:21:01;;;;;;;1.88;1.38;;;;;;;;;;5032958;28;20238;-64
2023/08/11 14:23:28;;;;;;;5.95;1.60;;;;;;;;;;5033628;28;20199;-64
2023/08/11 14:25:54;;;;;;;1.58;1.48;;;;;;;;;;5032822;28;20203;-65
2023/08/11 14:28:20;;;;;;;2.00;1.90;;;;;;;;;;5033042;28;20196;-64
2023/08/11 14:30:48;;;;;;;1.90;1.80;;;;;;;;;;5032782;28;20266;-63
2023/08/11 14:33:15;;;;;;;2.42;2.20;;;;;;;;;;5032927;28;20673;-64
2023/08/11 14:35:41;;;;;;;2.03;1.80;;;;;;;;;;5032655;28;20625;-63
2023/08/11 14:38:07;;;;;;;2.15;1.95;;;;;;;;;;5032689;28;20261;-64
2023/08/11 14:40:34;;;;;;;2.05;1.67;;;;;;;;;;5032218;28;20321;-65